Terminal Aerodrome Forecast
Issued by NWS

Home | Current Version | Previous Version | Text Only | Print | Product List | Glossary On
Versions: 1 2 3 4 5 6 7 8 9 10 11 12 13 14
000
FTUS45 KRIW 030530
TAFRKS
TAF
KRKS 030530Z 0306/0406 30010KT P6SM SCT060 BKN100
     FM031100 04011KT P6SM BKN100
     FM032200 17015G25KT P6SM VCTS SCT060CB BKN100
     FM040200 12008KT P6SM VCSH BKN050=

USA.gov is the U.S. government's official web portal to all federal, state and local government web resources and services.